createdAt,value
2019-04-23T00:01:14.862Z,4.00
2019-04-23T00:03:40.414Z,3.80
2019-04-23T00:06:21.768Z,3.90
2019-04-23T00:08:54.499Z,3.83
2019-04-23T00:11:19.314Z,3.60
2019-04-23T00:13:50.272Z,3.63
2019-04-23T00:19:08.313Z,3.97
2019-04-23T00:21:42.677Z,3.60
2019-04-23T00:24:53.290Z,3.30
2019-04-23T00:27:11.211Z,3.33
2019-04-23T00:29:44.437Z,3.80
2019-04-23T00:32:08.159Z,3.67
2019-04-23T00:34:43.454Z,3.63
2019-04-23T00:37:11.281Z,3.47
2019-04-23T00:39:40.743Z,3.40
2019-04-23T00:42:14.851Z,3.30
2019-04-23T00:44:46.049Z,3.43
2019-04-23T00:47:20.869Z,3.43
2019-04-23T00:49:53.287Z,3.43
2019-04-23T00:52:24.654Z,3.40
2019-04-23T00:54:57.973Z,3.23
2019-04-23T00:57:24.515Z,3.10
2019-04-23T01:02:33.297Z,3.00
2019-04-23T01:05:07.140Z,3.30
2019-04-23T01:07:31.842Z,3.40
2019-04-23T01:10:10.262Z,3.50
2019-04-23T01:12:46.664Z,3.20
2019-04-23T01:15:24.235Z,3.03
2019-04-23T01:17:53.375Z,3.20
2019-04-23T01:20:29.236Z,3.33
2019-04-23T01:22:38.038Z,3.40
2019-04-23T01:25:24.467Z,3.73
2019-04-23T01:28:15.900Z,3.23
2019-04-23T01:30:56.670Z,3.47
2019-04-23T01:33:27.072Z,3.30
2019-04-23T01:38:29.243Z,3.37
2019-04-23T01:40:53.779Z,3.30
2019-04-23T01:43:32.329Z,3.40
2019-04-23T01:46:02.740Z,3.77
2019-04-23T01:48:32.630Z,3.67
2019-04-23T01:51:20.209Z,3.50
2019-04-23T01:56:13.976Z,3.30
2019-04-23T02:01:12.489Z,3.73
2019-04-23T02:03:48.550Z,3.30
2019-04-23T02:06:33.170Z,3.13
2019-04-23T02:08:56.882Z,3.03
2019-04-23T02:11:18.983Z,3.20
2019-04-23T02:14:09.389Z,3.33
2019-04-23T02:16:29.097Z,3.40
2019-04-23T02:18:56.510Z,3.10
2019-04-23T02:21:33.474Z,3.50
2019-04-23T02:24:20.987Z,3.20
2019-04-23T02:26:35.599Z,3.23
2019-04-23T02:31:57.439Z,3.30
2019-04-23T02:39:22.417Z,3.33
2019-04-23T02:49:38.132Z,3.27
2019-04-23T02:52:10.216Z,3.10
2019-04-23T02:54:50.339Z,2.83
2019-04-23T02:57:12.802Z,3.40
2019-04-23T03:04:50.695Z,3.30
2019-04-23T03:07:37.570Z,3.30
2019-04-23T03:09:51.681Z,3.07
2019-04-23T03:12:32.156Z,2.90
2019-04-23T03:15:10.399Z,3.00
2019-04-23T03:17:59.291Z,3.00
2019-04-23T03:23:22.873Z,3.00
2019-04-23T03:25:49.873Z,2.93
2019-04-23T03:28:27.348Z,3.10
2019-04-23T03:48:41.593Z,3.10
2019-04-23T03:51:03.116Z,3.10
2019-04-23T03:56:38.402Z,3.00
2019-04-23T03:58:42.894Z,3.20
2019-04-23T04:01:22.835Z,2.90
2019-04-23T04:04:15.257Z,2.87
2019-04-23T04:08:58.491Z,3.30
2019-04-23T04:14:01.165Z,2.93
2019-04-23T04:16:28.428Z,2.90
2019-04-23T04:21:33.776Z,3.00
2019-04-23T04:24:11.369Z,2.90
2019-04-23T04:26:46.694Z,3.00
2019-04-23T04:31:55.160Z,2.90
2019-04-23T04:34:21.525Z,2.83
2019-04-23T04:39:08.045Z,2.70
2019-04-23T04:41:55.541Z,2.60
2019-04-23T04:44:38.260Z,2.80
2019-04-23T04:49:23.941Z,3.00
2019-04-23T04:52:14.207Z,3.00
2019-04-23T04:54:21.346Z,3.40
2019-04-23T04:59:25.810Z,3.10
2019-04-23T05:02:11.749Z,3.13
2019-04-23T05:04:39.912Z,2.83
2019-04-23T05:09:48.537Z,3.17
2019-04-23T05:17:39.701Z,3.00
2019-04-23T05:20:04.946Z,3.00
2019-04-23T05:22:45.061Z,3.30
2019-04-23T05:24:58.560Z,3.23
2019-04-23T05:27:37.251Z,3.30
2019-04-23T05:30:09.748Z,3.13
2019-04-23T05:32:41.677Z,3.43
2019-04-23T05:35:13.620Z,3.20
2019-04-23T05:38:02.564Z,3.00
2019-04-23T05:40:25.268Z,2.77
2019-04-23T05:42:47.609Z,3.13
2019-04-23T05:45:15.497Z,3.20
2019-04-23T05:50:38.611Z,3.03
2019-04-23T05:52:59.596Z,3.13
2019-04-23T05:55:26.965Z,3.37
2019-04-23T05:58:15.361Z,3.10
2019-04-23T06:00:43.210Z,3.20
2019-04-23T06:03:14.841Z,3.03
2019-04-23T06:08:17.693Z,3.10
2019-04-23T06:13:19.184Z,3.20
2019-04-23T06:15:53.985Z,3.57
2019-04-23T06:21:02.826Z,3.47
2019-04-23T06:26:19.850Z,3.17
2019-04-23T06:33:41.667Z,3.73
2019-04-23T06:38:44.958Z,3.50
2019-04-23T06:41:16.898Z,3.20
2019-04-23T06:44:14.520Z,3.40
2019-04-23T06:46:45.987Z,3.30
2019-04-23T06:49:17.064Z,3.10
2019-04-23T06:51:53.293Z,3.40
2019-04-23T06:54:19.295Z,3.00
2019-04-23T06:56:54.392Z,3.40
2019-04-23T06:59:17.010Z,3.00
2019-04-23T07:04:29.045Z,3.23
2019-04-23T07:07:13.675Z,3.30
2019-04-23T07:09:41.846Z,3.50
2019-04-23T07:11:55.267Z,3.40
2019-04-23T07:14:42.420Z,3.20
2019-04-23T07:16:58.577Z,3.30
2019-04-23T07:19:37.451Z,3.27
2019-04-23T07:22:14.428Z,3.50
2019-04-23T07:24:40.645Z,3.17
2019-04-23T07:27:11.730Z,3.50
2019-04-23T07:29:38.994Z,3.37
2019-04-23T07:32:10.869Z,3.17
2019-04-23T07:34:49.391Z,3.30
2019-04-23T07:37:32.784Z,3.30
2019-04-23T07:40:17.674Z,3.00
2019-04-23T07:42:59.972Z,3.17
2019-04-23T07:55:57.152Z,3.60
2019-04-23T07:58:24.856Z,3.70
2019-04-23T08:01:08.399Z,3.53
2019-04-23T08:06:17.849Z,3.47
2019-04-23T08:08:56.343Z,3.40
2019-04-23T08:11:39.776Z,3.50
2019-04-23T08:14:04.863Z,3.60
2019-04-23T08:16:39.763Z,3.57
2019-04-23T08:19:15.422Z,3.53
2019-04-23T08:21:36.473Z,3.80
2019-04-23T08:24:38.451Z,3.90
2019-04-23T08:27:18.105Z,4.10
2019-04-23T08:29:47.809Z,4.10
2019-04-23T08:32:19.510Z,3.80
2019-04-23T08:37:51.973Z,4.13
2019-04-23T08:42:46.238Z,4.20
2019-04-23T08:50:46.566Z,4.13
2019-04-23T08:56:15.625Z,4.33
2019-04-23T08:58:30.185Z,4.67
2019-04-23T09:01:06.295Z,4.60
2019-04-23T09:03:34.237Z,4.33
2019-04-23T09:08:37.427Z,4.60
2019-04-23T09:16:22.436Z,4.33
2019-04-23T09:18:47.353Z,4.30
2019-04-23T09:21:21.478Z,4.50
2019-04-23T09:23:53.747Z,4.63
2019-04-23T09:26:16.109Z,4.80
2019-04-23T09:28:58.018Z,4.70
2019-04-23T09:34:46.677Z,4.83
2019-04-23T09:37:45.344Z,4.47
2019-04-23T09:40:31.746Z,4.73
2019-04-23T09:43:14.325Z,4.30
2019-04-23T09:45:58.004Z,4.87
2019-04-23T09:48:35.008Z,4.70
2019-04-23T09:51:03.143Z,4.50
2019-04-23T09:53:34.355Z,4.70
2019-04-23T09:55:59.740Z,5.20
2019-04-23T09:58:34.488Z,4.57
2019-04-23T10:01:25.923Z,5.17
2019-04-23T10:03:47.890Z,4.77
2019-04-23T10:06:14.517Z,4.83
2019-04-23T10:08:46.521Z,5.33
2019-04-23T10:11:15.856Z,4.70
2019-04-23T10:13:45.738Z,4.57
2019-04-23T10:16:19.487Z,5.30
2019-04-23T10:18:49.144Z,4.50
2019-04-23T10:21:19.485Z,5.10
2019-04-23T10:23:49.735Z,5.37
2019-04-23T10:26:21.733Z,5.43
2019-04-23T10:29:00.138Z,5.87
2019-04-23T10:31:31.445Z,4.90
2019-04-23T10:34:02.100Z,5.63
2019-04-23T10:36:34.078Z,5.30
2019-04-23T10:39:11.576Z,5.70
2019-04-23T10:41:38.516Z,6.47
2019-04-23T10:44:23.584Z,5.97
2019-04-23T10:47:42.513Z,6.17
2019-04-23T10:50:35.043Z,5.57
2019-04-23T10:53:09.861Z,5.57
2019-04-23T10:55:42.215Z,6.17
2019-04-23T10:58:08.382Z,5.50
2019-04-23T11:00:44.824Z,5.93
2019-04-23T11:03:20.581Z,6.20
2019-04-23T11:05:52.307Z,6.00
2019-04-23T11:08:09.993Z,6.00
2019-04-23T11:10:48.438Z,5.67
2019-04-23T11:13:48.719Z,5.97
2019-04-23T11:18:40.136Z,6.40
2019-04-23T11:21:05.219Z,5.70
2019-04-23T11:23:34.863Z,5.53
2019-04-23T11:26:09.695Z,5.87
2019-04-23T11:31:23.836Z,6.23
2019-04-23T11:33:51.034Z,6.00
2019-04-23T11:41:47.091Z,6.40
2019-04-23T11:43:58.817Z,5.40
2019-04-23T11:49:20.621Z,6.43
2019-04-23T11:54:05.864Z,6.43
2019-04-23T11:57:09.337Z,6.53
2019-04-23T11:59:10.217Z,6.03
2019-04-23T12:02:00.803Z,6.23
2019-04-23T12:07:29.818Z,6.53
2019-04-23T12:10:23.650Z,6.80
2019-04-23T12:12:54.171Z,6.33
2019-04-23T12:15:18.355Z,5.97
2019-04-23T12:20:30.550Z,5.80
2019-04-23T12:23:06.297Z,5.80
2019-04-23T12:25:32.914Z,5.63
2019-04-23T12:27:46.899Z,6.20
2019-04-23T12:33:07.002Z,5.93
2019-04-23T12:35:43.723Z,6.17
2019-04-23T12:38:13.946Z,5.60
2019-04-23T12:40:37.927Z,6.10
2019-04-23T12:43:17.877Z,5.73
2019-04-23T12:45:43.986Z,5.93
2019-04-23T12:53:37.979Z,5.90
2019-04-23T12:55:54.134Z,6.10
2019-04-23T12:58:26.663Z,5.70
2019-04-23T13:00:53.919Z,6.20
2019-04-23T13:03:31.508Z,5.30
2019-04-23T13:05:54.073Z,5.50
2019-04-23T13:08:39.237Z,5.17
2019-04-23T13:11:08.243Z,5.57
2019-04-23T13:13:48.412Z,5.50
2019-04-23T13:16:17.904Z,5.97
2019-04-23T13:18:48.173Z,5.67
2019-04-23T13:21:38.445Z,5.93
2019-04-23T13:23:54.730Z,5.80
2019-04-23T13:26:31.428Z,5.50
2019-04-23T13:29:11.091Z,5.50
2019-04-23T13:31:30.170Z,6.03
2019-04-23T13:34:07.078Z,5.60
2019-04-23T13:39:20.253Z,5.73
2019-04-23T13:41:50.256Z,5.97
2019-04-23T13:44:15.778Z,5.80
2019-04-23T13:46:52.521Z,5.77
2019-04-23T13:49:18.388Z,6.23
2019-04-23T13:51:48.703Z,5.90
2019-04-23T13:54:50.241Z,6.30
2019-04-23T13:59:38.837Z,5.93
2019-04-23T14:02:05.698Z,5.80
2019-04-23T14:07:15.691Z,6.20
2019-04-23T14:10:00.536Z,5.73
2019-04-23T14:12:17.853Z,6.40
2019-04-23T14:15:02.337Z,6.40
2019-04-23T14:17:59.868Z,6.23
2019-04-23T14:19:53.711Z,5.87
2019-04-23T14:27:39.476Z,6.03
2019-04-23T14:30:22.820Z,6.30
2019-04-23T14:32:34.100Z,6.70
2019-04-23T14:37:58.105Z,6.10
2019-04-23T14:40:29.379Z,6.07
2019-04-23T14:45:47.351Z,7.17
2019-04-23T14:48:05.837Z,7.03
2019-04-23T14:55:49.050Z,6.33
2019-04-23T14:58:21.907Z,6.63
2019-04-23T15:00:53.080Z,6.87
2019-04-23T15:03:27.271Z,5.80
2019-04-23T15:06:05.334Z,6.70
2019-04-23T15:08:25.101Z,5.93
2019-04-23T15:11:06.347Z,6.10
2019-04-23T15:16:08.005Z,6.23
2019-04-23T15:18:48.778Z,6.75
2019-04-23T15:21:27.951Z,5.80
2019-04-23T15:23:54.016Z,6.00
2019-04-23T15:27:06.952Z,6.10
2019-04-23T15:28:23.295Z,6.53
2019-04-23T15:36:32.132Z,6.37
2019-04-23T15:39:02.335Z,6.47
2019-04-23T15:41:34.550Z,6.10
2019-04-23T15:44:07.363Z,6.30
2019-04-23T15:46:32.978Z,6.17
2019-04-23T15:49:07.659Z,5.83
2019-04-23T15:51:38.979Z,6.05
2019-04-23T15:56:44.541Z,6.00
2019-04-23T16:01:37.667Z,5.78
2019-04-23T16:03:47.698Z,6.20
2019-04-23T16:06:22.067Z,6.92
2019-04-23T16:09:21.069Z,6.40
2019-04-23T16:16:51.533Z,6.67
2019-04-23T16:19:53.204Z,6.00
2019-04-23T16:22:16.112Z,6.10
2019-04-23T16:24:56.026Z,6.43
2019-04-23T16:27:29.280Z,6.33
2019-04-23T16:32:52.405Z,5.73
2019-04-23T16:35:31.029Z,6.27
2019-04-23T16:38:01.404Z,6.10
2019-04-23T16:40:31.289Z,6.10
2019-04-23T16:43:03.733Z,6.10
2019-04-23T16:45:31.865Z,5.50
2019-04-23T16:48:09.258Z,5.70
2019-04-23T16:50:41.738Z,6.17
2019-04-23T16:53:11.223Z,6.30
2019-04-23T16:55:39.977Z,5.83
2019-04-23T16:58:23.284Z,6.10
2019-04-23T17:00:51.180Z,7.07
2019-04-23T17:03:21.186Z,6.40
2019-04-23T17:05:50.603Z,6.40
2019-04-23T17:08:37.388Z,6.40
2019-04-23T17:10:55.450Z,5.90
2019-04-23T17:13:30.019Z,6.30
2019-04-23T17:16:00.887Z,6.27
2019-04-23T17:18:24.556Z,6.40
2019-04-23T17:20:58.326Z,5.77
2019-04-23T17:23:45.913Z,6.30
2019-04-23T17:26:02.709Z,6.57
2019-04-23T17:28:27.848Z,6.03
2019-04-23T17:33:43.497Z,6.33
2019-04-23T17:39:21.128Z,5.80
2019-04-23T17:45:00.053Z,6.43
2019-04-23T17:47:20.732Z,6.50
2019-04-23T17:49:59.525Z,7.00
2019-04-23T17:52:28.035Z,6.87
2019-04-23T17:54:57.007Z,6.30
2019-04-23T18:05:33.322Z,6.77
2019-04-23T18:08:05.492Z,6.60
2019-04-23T18:10:30.351Z,6.80
2019-04-23T18:15:21.962Z,6.70
2019-04-23T18:20:57.373Z,7.10
2019-04-23T18:23:13.544Z,6.23
2019-04-23T18:28:29.610Z,6.67
2019-04-23T18:31:12.932Z,7.10
2019-04-23T18:36:18.351Z,7.00
2019-04-23T18:38:59.754Z,6.53
2019-04-23T18:41:27.563Z,7.10
2019-04-23T18:44:04.297Z,7.00
2019-04-23T18:46:36.600Z,7.00
2019-04-23T18:49:03.523Z,7.00
2019-04-23T18:51:40.662Z,7.00
2019-04-23T18:54:08.428Z,6.77
2019-04-23T18:57:00.165Z,6.73
2019-04-23T18:59:15.845Z,7.17
2019-04-23T19:02:17.935Z,7.73
2019-04-23T19:05:03.460Z,7.60
2019-04-23T19:10:33.721Z,6.83
2019-04-23T19:15:50.960Z,7.23
2019-04-23T19:18:14.530Z,7.30
2019-04-23T19:23:28.917Z,7.07
2019-04-23T19:25:48.280Z,6.67
2019-04-23T19:28:41.139Z,7.30
2019-04-23T19:31:07.102Z,6.57
2019-04-23T19:33:53.661Z,7.93
2019-04-23T19:36:17.617Z,8.87
2019-04-23T19:38:49.639Z,8.90
2019-04-23T19:41:20.489Z,7.67
2019-04-23T19:43:58.077Z,7.03
2019-04-23T19:46:36.646Z,6.97
2019-04-23T19:49:13.166Z,6.87
2019-04-23T19:54:09.744Z,6.87
2019-04-23T19:56:41.464Z,6.63
2019-04-23T20:01:43.453Z,6.73
2019-04-23T20:07:05.536Z,6.87
2019-04-23T20:09:30.674Z,7.30
2019-04-23T20:11:50.545Z,6.73
2019-04-23T20:14:19.366Z,7.10
2019-04-23T20:17:02.575Z,6.70
2019-04-23T20:19:25.474Z,6.50
2019-04-23T20:22:00.218Z,6.93
2019-04-23T20:24:30.172Z,6.97
2019-04-23T20:27:06.018Z,7.20
2019-04-23T20:30:12.332Z,6.43
2019-04-23T20:35:01.881Z,6.53
2019-04-23T20:37:42.733Z,7.10
2019-04-23T20:40:01.067Z,6.97
2019-04-23T20:45:04.770Z,7.43
2019-04-23T20:47:37.328Z,6.90
2019-04-23T20:49:58.566Z,7.83
2019-04-23T20:52:35.127Z,7.17
2019-04-23T20:55:19.163Z,7.23
2019-04-23T20:57:55.317Z,7.50
2019-04-23T21:00:43.523Z,7.13
2019-04-23T21:05:41.202Z,6.60
2019-04-23T21:10:58.228Z,7.03
2019-04-23T21:15:53.692Z,7.97
2019-04-23T21:18:34.571Z,7.60
2019-04-23T21:21:02.009Z,7.67
2019-04-23T21:23:28.780Z,7.03
2019-04-23T21:26:07.940Z,7.90
2019-04-23T21:28:43.700Z,7.50
2019-04-23T21:36:43.425Z,6.70
2019-04-23T21:39:28.349Z,7.33
2019-04-23T21:44:46.829Z,7.33
2019-04-23T21:49:50.658Z,7.20
2019-04-23T21:52:05.048Z,7.80
2019-04-23T21:54:42.908Z,7.90
2019-04-23T21:57:12.175Z,8.23
2019-04-23T21:59:44.655Z,7.37
2019-04-23T22:07:27.385Z,8.43
2019-04-23T22:09:57.718Z,8.67
2019-04-23T22:12:23.159Z,8.50
2019-04-23T22:14:53.780Z,7.97
2019-04-23T22:20:10.893Z,8.60
2019-04-23T22:22:49.670Z,8.70
2019-04-23T22:25:04.482Z,8.70
2019-04-23T22:27:41.214Z,8.40
2019-04-23T22:30:11.090Z,8.77
2019-04-23T22:33:00.904Z,8.30
2019-04-23T22:35:24.315Z,8.53
2019-04-23T22:38:02.383Z,8.27
2019-04-23T22:40:15.049Z,8.93
2019-04-23T22:43:14.659Z,8.33
2019-04-23T22:45:29.980Z,8.93
2019-04-23T22:53:08.691Z,9.00
2019-04-23T22:55:47.725Z,8.50
2019-04-23T23:00:46.366Z,8.50
2019-04-23T23:03:22.750Z,8.03
2019-04-23T23:06:11.059Z,8.10
2019-04-23T23:08:34.642Z,8.43
2019-04-23T23:11:02.327Z,8.20
2019-04-23T23:16:06.834Z,8.03
2019-04-23T23:18:40.549Z,8.33
2019-04-23T23:21:16.328Z,7.97
2019-04-23T23:23:47.807Z,8.30
2019-04-23T23:26:14.293Z,8.33
2019-04-23T23:28:47.280Z,9.00
2019-04-23T23:33:54.263Z,8.67
2019-04-23T23:36:33.255Z,8.47
2019-04-23T23:41:33.790Z,8.40
2019-04-23T23:44:28.387Z,8.23
2019-04-23T23:46:46.184Z,8.50
2019-04-23T23:49:14.150Z,8.57
2019-04-23T23:54:13.550Z,7.83
2019-04-23T23:56:54.537Z,8.97
